Terminal Aerodrome Forecast
Issued by NWS Oklahoma City, OK

Home | Current Version | Previous Version | Text Only | Print | Product List | Glossary On
Versions: 1 2 3 4 5 6 7 8 9 10 11 12 13 14 15 16 17 18 19 20 21 22 23 24
000
FTUS44 KOUN 030523
TAFOUN
TAF
KOUN 030523Z 0306/0406 15009KT P6SM BKN070
      TEMPO 0306/0308 2SM TSRA BR BKN015CB
     FM031400 23009KT P6SM SCT050 BKN250
     FM031800 31007KT P6SM SCT050 BKN100 PROB30 0318/0324 3SM TSRA
      BKN050CB
     FM040000 01008KT P6SM SCT050 BKN200 PROB30 0400/0403 P6SM TSRA
      BKN050CB=

USA.gov is the U.S. government's official web portal to all federal, state and local government web resources and services.